Latest Weather Observations for Fawkner Beacon

IDV60801

Issued at 11:22 am EST Sunday 16 June 2019 (issued every 10 minutes, with the page automatically refreshed every 10 minutes)

About weather observations | Map of weather stations | Latest weather observations for VIC | Other Formats
Station Details ID: 086376 Name: FAWKNER BEACON Lat: -37.95 Lon: 144.93 Height: 17.0 m
Data from the previous 72 hours. | See also: Recent months at Fawkner Beacon
Date/Time
EST
Temp
°C
App
Temp
°C
Dew
Point
°C
Rel
Hum
%
Delta-T
°C
Wind Press
QNH
hPa
Press
MSL
hPa
Rain since
9am
mm
Dir  Spd
km/h
Gust
km/h
Spd
kts
Gust
kts
16/11:00am - - - - - N 17 20 9 11 - - -
16/10:30am - - - - - N 17 20 9 11 - - -
16/10:00am - - - - - N 17 20 9 11 - - -
16/09:30am - - - - - NNE 15 17 8 9 - - -
16/09:00am - - - - - NNE 13 15 7 8 - - -
16/08:30am - - - - - N 13 15 7 8 - - -
16/08:00am - - - - - N 13 15 7 8 - - -
16/07:30am - - - - - N 15 22 8 12 - - -
16/07:00am - - - - - N 15 17 8 9 - - -
16/06:30am - - - - - N 20 22 11 12 - - -
16/06:00am - - - - - N 19 24 10 13 - - -
16/05:30am - - - - - NNE 19 22 10 12 - - -
16/05:00am - - - - - NNE 17 20 9 11 - - -
16/04:30am - - - - - NNE 15 17 8 9 - - -
16/04:00am - - - - - NNE 13 15 7 8 - - -
16/03:30am - - - - - N 17 22 9 12 - - -
16/03:00am - - - - - N 22 24 12 13 - - -
16/02:30am - - - - - N 24 28 13 15 - - -
16/02:00am - - - - - N 19 24 10 13 - - -
16/01:30am - - - - - N 20 24 11 13 - - -
16/01:00am - - - - - N 24 28 13 15 - - -
16/12:30am - - - - - N 20 24 11 13 - - -
16/12:00am - - - - - N 22 28 12 15 - - -
 
Date/Time
EST
Temp
°C
App
Temp
°C
Dew
Point
°C
Rel
Hum
%
Delta-T
°C
Wind Press
QNH
hPa
Press
MSL
hPa
Rain since
9am
mm
Dir  Spd
km/h
Gust
km/h
Spd
kts
Gust
kts
15/11:30pm - - - - - N 20 24 11 13 - - -
15/11:00pm - - - - - N 19 20 10 11 - - -
15/10:30pm - - - - - N 20 22 11 12 - - -
15/10:00pm - - - - - N 22 24 12 13 - - -
15/09:30pm - - - - - N 22 28 12 15 - - -
15/09:00pm - - - - - N 22 26 12 14 - - -
15/08:30pm - - - - - N 15 17 8 9 - - -
15/08:00pm - - - - - N 15 20 8 11 - - -
15/07:30pm - - - - - N 13 17 7 9 - - -
15/07:00pm - - - - - NNE 13 13 7 7 - - -
15/06:30pm - - - - - NE 9 13 5 7 - - -
15/06:00pm - - - - - NE 11 13 6 7 - - -
15/05:30pm - - - - - ENE 9 11 5 6 - - -
15/05:00pm - - - - - CALM 0 0 0 0 - - -
15/04:30pm - - - - - ESE 6 6 3 3 - - -
15/04:00pm - - - - - S 4 6 2 3 - - -
15/03:30pm - - - - - S 4 6 2 3 - - -
15/03:00pm - - - - - S 6 9 3 5 - - -
15/02:30pm - - - - - S 6 7 3 4 - - -
15/02:00pm - - - - - S 6 7 3 4 - - -
15/01:30pm - - - - - N 2 4 1 2 - - -
15/01:00pm - - - - - N 6 7 3 4 - - -
15/12:30pm - - - - - NNW 6 7 3 4 - - -
15/12:00pm - - - - - NNW 7 7 4 4 - - -
15/11:30am - - - - - NW 9 11 5 6 - - -
15/11:00am - - - - - NNW 11 13 6 7 - - -
15/10:30am - - - - - NNW 13 17 7 9 - - -
15/10:00am - - - - - N 17 20 9 11 - - -
15/09:30am - - - - - N 13 17 7 9 - - -
15/09:00am - - - - - N 11 15 6 8 - - -
15/08:30am - - - - - N 9 13 5 7 - - -
15/08:00am - - - - - N 13 15 7 8 - - -
15/07:30am - - - - - NNE 13 17 7 9 - - -
15/07:00am - - - - - N 13 15 7 8 - - -
15/06:30am - - - - - N 11 13 6 7 - - -
15/06:00am - - - - - N 13 15 7 8 - - -
15/05:30am - - - - - N 13 17 7 9 - - -
15/05:00am - - - - - N 13 17 7 9 - - -
15/04:30am - - - - - N 17 20 9 11 - - -
15/04:00am - - - - - N 19 22 10 12 - - -
15/03:30am - - - - - N 15 17 8 9 - - -
15/03:00am - - - - - N 17 22 9 12 - - -
15/02:30am - - - - - N 20 24 11 13 - - -
15/02:00am - - - - - N 17 20 9 11 - - -
15/01:30am - - - - - N 19 22 10 12 - - -
15/01:00am - - - - - NNW 17 26 9 14 - - -
15/12:30am - - - - - NNW 17 22 9 12 - - -
15/12:00am - - - - - NNW 17 22 9 12 - - -
 
Date/Time
EST
Temp
°C
App
Temp
°C
Dew
Point
°C
Rel
Hum
%
Delta-T
°C
Wind Press
QNH
hPa
Press
MSL
hPa
Rain since
9am
mm
Dir  Spd
km/h
Gust
km/h
Spd
kts
Gust
kts
14/11:30pm - - - - - NNW 17 22 9 12 - - -
14/11:00pm - - - - - NNW 17 24 9 13 - - -
14/10:30pm - - - - - NW 20 24 11 13 - - -
14/10:00pm - - - - - WNW 22 24 12 13 - - -
14/09:30pm - - - - - WNW 24 26 13 14 - - -
14/09:00pm - - - - - WNW 24 28 13 15 - - -
14/08:30pm - - - - - W 22 28 12 15 - - -
14/08:00pm - - - - - W 26 30 14 16 - - -
14/07:30pm - - - - - W 26 32 14 17 - - -
14/07:00pm - - - - - W 32 35 17 19 - - -
14/06:30pm - - - - - W 32 39 17 21 - - -
14/06:00pm - - - - - WSW 30 50 16 27 - - -
14/05:59pm - - - - - WSW 28 48 15 26 - - -
14/05:30pm - - - - - WNW 28 33 15 18 - - -
14/05:00pm - - - - - NW 30 33 16 18 - - -
14/04:30pm - - - - - NW 28 33 15 18 - - -
14/04:00pm - - - - - NW 22 28 12 15 - - -
14/03:30pm - - - - - NW 30 33 16 18 - - -
14/03:00pm - - - - - NW 28 32 15 17 - - -
14/02:30pm - - - - - NW 37 44 20 24 - - -
14/02:00pm - - - - - NNW 32 39 17 21 - - -
14/01:30pm - - - - - NNW 32 41 17 22 - - -
14/01:00pm - - - - - NW 30 33 16 18 - - -
14/12:30pm - - - - - NNW 28 32 15 17 - - -
14/12:00pm - - - - - NNW 22 30 12 16 - - -
14/11:30am - - - - - N 24 28 13 15 - - -
14/11:00am - - - - - NNW 24 28 13 15 - - -
14/10:30am - - - - - NNW 28 32 15 17 - - -
14/10:00am - - - - - NNW 30 33 16 18 - - -
14/09:30am - - - - - NNW 30 35 16 19 - - -
14/09:00am - - - - - NNW 28 32 15 17 - - -
14/08:30am - - - - - N 30 33 16 18 - - -
14/08:00am - - - - - NNW 32 35 17 19 - - -
14/07:30am - - - - - NNW 30 35 16 19 - - -
14/07:00am - - - - - NNW 28 33 15 18 - - -
14/06:30am - - - - - NNW 28 33 15 18 - - -
14/06:00am - - - - - NNW 28 32 15 17 - - -
14/05:30am - - - - - NNW 24 30 13 16 - - -
14/05:00am - - - - - N 22 26 12 14 - - -
14/04:30am - - - - - N 22 26 12 14 - - -
14/04:00am - - - - - N 20 24 11 13 - - -
14/03:30am - - - - - N 20 24 11 13 - - -
14/03:00am - - - - - N 17 20 9 11 - - -
14/02:30am - - - - - NNW 20 24 11 13 - - -
14/02:00am - - - - - NW 22 24 12 13 - - -
14/01:30am - - - - - NW 22 28 12 15 - - -
14/01:00am - - - - - NW 20 24 11 13 - - -
14/12:30am - - - - - NNW 22 26 12 14 - - -
14/12:00am - - - - - NNW 20 24 11 13 - - -
 
Date/Time
EST
Temp
°C
App
Temp
°C
Dew
Point
°C
Rel
Hum
%
Delta-T
°C
Wind Press
QNH
hPa
Press
MSL
hPa
Rain since
9am
mm
Dir  Spd
km/h
Gust
km/h
Spd
kts
Gust
kts
13/11:30pm - - - - - N 19 20 10 11 - - -
13/11:00pm - - - - - N 22 26 12 14 - - -
13/10:30pm - - - - - N 20 24 11 13 - - -
13/10:00pm - - - - - NNW 17 20 9 11 - - -
13/09:30pm - - - - - NW 15 20 8 11 - - -
13/09:00pm - - - - - WNW 28 35 15 19 - - -
13/08:30pm - - - - - W 30 43 16 23 - - -
13/08:00pm - - - - - W 30 43 16 23 - - -
13/07:30pm - - - - - WSW 32 39 17 21 - - -
13/07:00pm - - - - - WSW 32 41 17 22 - - -
13/06:43pm - - - - - W 26 50 14 27 - - -
13/06:30pm - - - - - NNW 24 28 13 15 - - -
13/06:00pm - - - - - NNW 20 28 11 15 - - -
13/05:30pm - - - - - NNW 24 28 13 15 - - -
13/05:00pm - - - - - NW 28 30 15 16 - - -
13/04:30pm - - - - - NW 28 33 15 18 - - -
13/04:00pm - - - - - NW 32 35 17 19 - - -
13/03:30pm - - - - - NW 33 44 18 24 - - -
13/03:00pm - - - - - NW 39 46 21 25 - - -
13/02:30pm - - - - - WNW 35 43 19 23 - - -
13/02:00pm - - - - - NW 33 44 18 24 - - -
13/01:30pm - - - - - NW 28 41 15 22 - - -
13/01:00pm - - - - - WNW 33 44 18 24 - - -
13/12:30pm - - - - - NW 35 41 19 22 - - -
13/12:00pm - - - - - NW 30 39 16 21 - - -
13/11:30am - - - - - NNW 30 39 16 21 - - -

Other formats

Comma delimited format used in spreadsheet applications
http://www.bom.gov.au/fwo/IDV60801/IDV60801.95872.axf

JavaScript Object Notation format (JSON) in row-major order
http://www.bom.gov.au/fwo/IDV60801/IDV60801.95872.json

Data quality

Most of these data are generated automatically and are frequently updated. Quality checks on data are not normally performed. It is possible for incorrect values to appear. Refer to information at About Latest Weather Observations and please check the disclaimer before using these data.